Flugplatz Fassberg Airport

Bericht für ETHS

vom 23.09. um 18:20 UTC

Wind 7 kt aus 320°

Sichtweite 10 km oder mehr

gering bewölkt in 1000 ft

aufgebrochene Bewölkung in 6000 ft

Temperatur 9.0°C

Taupunkt 7.0°C

Luftfeuchtigkeit 87%

Luftdruck 1011 hPa

ETHS 231820Z 32007KT 9999 FEW010 BKN060 09/07 Q1011 BLU
Keine Prognose (TAF) verfügbar.
Impressum